sensor_id;sensor_type;location;lat;lon;timestamp;P1;P4;P2;P0;N10;N4;N25;N1;N05;TS
79466;SPS30;68933;49.726;9.226;2023-11-19T00:01:35;3.8;;3.8;3.7;;;;;;
79466;SPS30;68933;49.726;9.226;2023-11-19T00:03:48;3.8;;3.8;3.7;;;;;;
79466;SPS30;68933;49.726;9.226;2023-11-19T00:06:01;1.6;;1.6;1.6;;;;;;
79466;SPS30;68933;49.726;9.226;2023-11-19T00:08:14;1.6;;1.6;1.6;;;;;;
79466;SPS30;68933;49.726;9.226;2023-11-19T00:10:27;1.7;;1.7;1.7;;;;;;
79466;SPS30;68933;49.726;9.226;2023-11-19T00:12:41;1.7;;1.7;1.7;;;;;;
79466;SPS30;68933;49.726;9.226;2023-11-19T00:14:53;1.1;;1.1;1.1;;;;;;
79466;SPS30;68933;49.726;9.226;2023-11-19T00:17:06;1.1;;1.1;1.1;;;;;;
79466;SPS30;68933;49.726;9.226;2023-11-19T00:19:19;1.3;;1.3;1.3;;;;;;
79466;SPS30;68933;49.726;9.226;2023-11-19T00:21:32;1.3;;1.3;1.3;;;;;;
79466;SPS30;68933;49.726;9.226;2023-11-19T00:23:45;1.3;;1.3;1.3;;;;;;
79466;SPS30;68933;49.726;9.226;2023-11-19T00:29:34;1.1;;1.1;1.1;;;;;;
79466;SPS30;68933;49.726;9.226;2023-11-19T00:31:46;1.2;;1.2;1.2;;;;;;
79466;SPS30;68933;49.726;9.226;2023-11-19T00:33:59;1.2;;1.2;1.2;;;;;;
79466;SPS30;68933;49.726;9.226;2023-11-19T00:36:12;1.3;;1.3;1.2;;;;;;
79466;SPS30;68933;49.726;9.226;2023-11-19T00:38:25;1.3;;1.3;1.2;;;;;;
79466;SPS30;68933;49.726;9.226;2023-11-19T00:40:38;0.8;;0.8;0.7;;;;;;
79466;SPS30;68933;49.726;9.226;2023-11-19T00:42:51;0.8;;0.8;0.7;;;;;;
79466;SPS30;68933;49.726;9.226;2023-11-19T00:45:05;0.8;;0.8;0.8;;;;;;
79466;SPS30;68933;49.726;9.226;2023-11-19T00:47:17;0.8;;0.8;0.8;;;;;;
79466;SPS30;68933;49.726;9.226;2023-11-19T00:49:30;0.6;;0.6;0.6;;;;;;
79466;SPS30;68933;49.726;9.226;2023-11-19T00:51:43;0.6;;0.6;0.6;;;;;;
79466;SPS30;68933;49.726;9.226;2023-11-19T00:53:56;13.1;;11.9;10.3;;;;;;
79466;SPS30;68933;49.726;9.226;2023-11-19T00:56:10;13.1;;11.9;10.3;;;;;;
79466;SPS30;68933;49.726;9.226;2023-11-19T00:58:22;13.1;;11.9;10.3;;;;;;
79466;SPS30;68933;49.726;9.226;2023-11-19T01:00:35;1.6;;1.5;1.4;;;;;;
79466;SPS30;68933;49.726;9.226;2023-11-19T01:02:48;1.6;;1.5;1.4;;;;;;
79466;SPS30;68933;49.726;9.226;2023-11-19T01:05:01;1.4;;1.4;1.3;;;;;;
79466;SPS30;68933;49.726;9.226;2023-11-19T01:07:14;1.4;;1.4;1.3;;;;;;
79466;SPS30;68933;49.726;9.226;2023-11-19T01:09:27;1.2;;1.2;1.2;;;;;;
79466;SPS30;68933;49.726;9.226;2023-11-19T01:11:40;1.2;;1.2;1.2;;;;;;
79466;SPS30;68933;49.726;9.226;2023-11-19T01:13:53;1.1;;1.1;1.1;;;;;;
79466;SPS30;68933;49.726;9.226;2023-11-19T01:16:06;1.1;;1.1;1.1;;;;;;
79466;SPS30;68933;49.726;9.226;2023-11-19T01:18:19;1.1;;1.1;1.1;;;;;;
79466;SPS30;68933;49.726;9.226;2023-11-19T01:20:32;0.5;;0.5;0.5;;;;;;
79466;SPS30;68933;49.726;9.226;2023-11-19T01:22:45;0.5;;0.5;0.5;;;;;;
79466;SPS30;68933;49.726;9.226;2023-11-19T01:24:58;0.7;;0.7;0.6;;;;;;
79466;SPS30;68933;49.726;9.226;2023-11-19T01:27:11;0.7;;0.7;0.6;;;;;;
79466;SPS30;68933;49.726;9.226;2023-11-19T01:29:24;0.3;;0.3;0.3;;;;;;
79466;SPS30;68933;49.726;9.226;2023-11-19T01:31:37;0.3;;0.3;0.3;;;;;;
79466;SPS30;68933;49.726;9.226;2023-11-19T01:33:50;0.6;;0.6;0.6;;;;;;
79466;SPS30;68933;49.726;9.226;2023-11-19T01:36:04;0.6;;0.6;0.6;;;;;;
79466;SPS30;68933;49.726;9.226;2023-11-19T01:38:16;0.8;;0.8;0.8;;;;;;
79466;SPS30;68933;49.726;9.226;2023-11-19T01:40:29;0.8;;0.8;0.8;;;;;;
79466;SPS30;68933;49.726;9.226;2023-11-19T01:42:42;0.3;;0.3;0.3;;;;;;
79466;SPS30;68933;49.726;9.226;2023-11-19T01:44:57;0.3;;0.3;0.3;;;;;;
79466;SPS30;68933;49.726;9.226;2023-11-19T01:47:08;0.3;;0.3;0.3;;;;;;
79466;SPS30;68933;49.726;9.226;2023-11-19T01:49:21;0.5;;0.5;0.4;;;;;;
79466;SPS30;68933;49.726;9.226;2023-11-19T01:51:34;0.5;;0.5;0.4;;;;;;
79466;SPS30;68933;49.726;9.226;2023-11-19T01:53:47;0.4;;0.4;0.4;;;;;;
79466;SPS30;68933;49.726;9.226;2023-11-19T01:56:00;0.4;;0.4;0.4;;;;;;
79466;SPS30;68933;49.726;9.226;2023-11-19T01:58:13;0.4;;0.4;0.4;;;;;;
79466;SPS30;68933;49.726;9.226;2023-11-19T02:00:26;0.6;;0.6;0.6;;;;;;
79466;SPS30;68933;49.726;9.226;2023-11-19T02:02:39;0.6;;0.6;0.6;;;;;;
79466;SPS30;68933;49.726;9.226;2023-11-19T02:04:52;0.7;;0.7;0.6;;;;;;
79466;SPS30;68933;49.726;9.226;2023-11-19T02:07:05;0.7;;0.7;0.6;;;;;;
79466;SPS30;68933;49.726;9.226;2023-11-19T02:09:18;0.7;;0.7;0.6;;;;;;
79466;SPS30;68933;49.726;9.226;2023-11-19T02:11:31;0.4;;0.4;0.4;;;;;;
79466;SPS30;68933;49.726;9.226;2023-11-19T02:13:44;0.4;;0.4;0.4;;;;;;
79466;SPS30;68933;49.726;9.226;2023-11-19T02:15:57;0.3;;0.3;0.2;;;;;;
79466;SPS30;68933;49.726;9.226;2023-11-19T02:18:18;0.3;;0.3;0.2;;;;;;
79466;SPS30;68933;49.726;9.226;2023-11-19T02:20:23;0.3;;0.3;0.2;;;;;;
79466;SPS30;68933;49.726;9.226;2023-11-19T02:22:36;0.2;;0.2;0.2;;;;;;
79466;SPS30;68933;49.726;9.226;2023-11-19T02:24:51;0.2;;0.2;0.2;;;;;;
79466;SPS30;68933;49.726;9.226;2023-11-19T02:27:02;0.1;;0.1;0.1;;;;;;
79466;SPS30;68933;49.726;9.226;2023-11-19T02:29:15;0.1;;0.1;0.1;;;;;;
79466;SPS30;68933;49.726;9.226;2023-11-19T02:31:28;0.1;;0.1;0.1;;;;;;
79466;SPS30;68933;49.726;9.226;2023-11-19T02:33:41;0.1;;0.1;0.1;;;;;;
79466;SPS30;68933;49.726;9.226;2023-11-19T02:35:54;0.1;;0.1;0.1;;;;;;
79466;SPS30;68933;49.726;9.226;2023-11-19T02:38:07;0.4;;0.4;0.4;;;;;;
79466;SPS30;68933;49.726;9.226;2023-11-19T02:40:20;0.4;;0.4;0.4;;;;;;
79466;SPS30;68933;49.726;9.226;2023-11-19T02:42:33;0.2;;0.2;0.2;;;;;;
79466;SPS30;68933;49.726;9.226;2023-11-19T02:44:46;0.2;;0.2;0.2;;;;;;
79466;SPS30;68933;49.726;9.226;2023-11-19T02:46:59;0.2;;0.2;0.2;;;;;;
79466;SPS30;68933;49.726;9.226;2023-11-19T02:49:12;0.3;;0.3;0.3;;;;;;
79466;SPS30;68933;49.726;9.226;2023-11-19T02:51:25;0.3;;0.3;0.3;;;;;;
79466;SPS30;68933;49.726;9.226;2023-11-19T02:53:38;0.1;;0.1;0.1;;;;;;
79466;SPS30;68933;49.726;9.226;2023-11-19T02:55:51;0.1;;0.1;0.1;;;;;;
79466;SPS30;68933;49.726;9.226;2023-11-19T02:58:04;0.1;;0.1;0.1;;;;;;
79466;SPS30;68933;49.726;9.226;2023-11-19T03:00:18;0.2;;0.2;0.2;;;;;;
79466;SPS30;68933;49.726;9.226;2023-11-19T03:02:30;0.2;;0.2;0.2;;;;;;
79466;SPS30;68933;49.726;9.226;2023-11-19T03:04:43;0.3;;0.3;0.3;;;;;;
79466;SPS30;68933;49.726;9.226;2023-11-19T03:06:56;0.3;;0.3;0.3;;;;;;
79466;SPS30;68933;49.726;9.226;2023-11-19T03:09:09;0.4;;0.4;0.4;;;;;;
79466;SPS30;68933;49.726;9.226;2023-11-19T03:11:22;0.4;;0.4;0.4;;;;;;
79466;SPS30;68933;49.726;9.226;2023-11-19T03:13:35;0.4;;0.4;0.4;;;;;;
79466;SPS30;68933;49.726;9.226;2023-11-19T03:15:48;0.3;;0.3;0.3;;;;;;
79466;SPS30;68933;49.726;9.226;2023-11-19T03:18:01;0.3;;0.3;0.3;;;;;;
79466;SPS30;68933;49.726;9.226;2023-11-19T03:20:14;0.5;;0.5;0.4;;;;;;
79466;SPS30;68933;49.726;9.226;2023-11-19T03:22:27;0.5;;0.5;0.4;;;;;;
79466;SPS30;68933;49.726;9.226;2023-11-19T03:24:40;0.4;;0.4;0.4;;;;;;
79466;SPS30;68933;49.726;9.226;2023-11-19T03:26:53;0.4;;0.4;0.4;;;;;;
79466;SPS30;68933;49.726;9.226;2023-11-19T03:29:06;0.4;;0.4;0.4;;;;;;
79466;SPS30;68933;49.726;9.226;2023-11-19T03:31:19;0.4;;0.4;0.4;;;;;;
79466;SPS30;68933;49.726;9.226;2023-11-19T03:33:32;0.4;;0.4;0.4;;;;;;
79466;SPS30;68933;49.726;9.226;2023-11-19T03:35:45;0.2;;0.2;0.2;;;;;;
79466;SPS30;68933;49.726;9.226;2023-11-19T03:37:58;0.2;;0.2;0.2;;;;;;
79466;SPS30;68933;49.726;9.226;2023-11-19T03:40:11;0.1;;0.1;0.1;;;;;;
79466;SPS30;68933;49.726;9.226;2023-11-19T03:42:24;0.1;;0.1;0.1;;;;;;
79466;SPS30;68933;49.726;9.226;2023-11-19T03:44:37;0.2;;0.2;0.2;;;;;;
79466;SPS30;68933;49.726;9.226;2023-11-19T03:46:50;0.2;;0.2;0.2;;;;;;
79466;SPS30;68933;49.726;9.226;2023-11-19T03:49:03;0.2;;0.2;0.2;;;;;;
79466;SPS30;68933;49.726;9.226;2023-11-19T03:51:16;0.1;;0.1;0.1;;;;;;
79466;SPS30;68933;49.726;9.226;2023-11-19T03:53:30;0.1;;0.1;0.1;;;;;;
79466;SPS30;68933;49.726;9.226;2023-11-19T03:55:42;1.2;;1.2;1.1;;;;;;
79466;SPS30;68933;49.726;9.226;2023-11-19T03:57:55;1.2;;1.2;1.1;;;;;;
79466;SPS30;68933;49.726;9.226;2023-11-19T04:00:08;0.7;;0.7;0.6;;;;;;
79466;SPS30;68933;49.726;9.226;2023-11-19T04:02:21;0.7;;0.7;0.6;;;;;;
79466;SPS30;68933;49.726;9.226;2023-11-19T04:04:34;2;;2;1.9;;;;;;
79466;SPS30;68933;49.726;9.226;2023-11-19T04:06:47;2;;2;1.9;;;;;;
79466;SPS30;68933;49.726;9.226;2023-11-19T04:09:00;27.8;;23.6;19.3;;;;;;
79466;SPS30;68933;49.726;9.226;2023-11-19T04:11:13;27.8;;23.6;19.3;;;;;;
79466;SPS30;68933;49.726;9.226;2023-11-19T04:13:26;27.8;;23.6;19.3;;;;;;
79466;SPS30;68933;49.726;9.226;2023-11-19T04:15:39;7.2;;6.1;5;;;;;;
79466;SPS30;68933;49.726;9.226;2023-11-19T04:17:52;7.2;;6.1;5;;;;;;
79466;SPS30;68933;49.726;9.226;2023-11-19T04:20:05;15.4;;13.6;11.6;;;;;;
79466;SPS30;68933;49.726;9.226;2023-11-19T04:22:18;15.4;;13.6;11.6;;;;;;
79466;SPS30;68933;49.726;9.226;2023-11-19T04:24:31;4.3;;4;3.6;;;;;;
79466;SPS30;68933;49.726;9.226;2023-11-19T04:26:45;4.3;;4;3.6;;;;;;
79466;SPS30;68933;49.726;9.226;2023-11-19T04:28:57;0.8;;0.8;0.7;;;;;;
79466;SPS30;68933;49.726;9.226;2023-11-19T04:31:10;0.8;;0.8;0.7;;;;;;
79466;SPS30;68933;49.726;9.226;2023-11-19T04:33:23;0.8;;0.8;0.7;;;;;;
79466;SPS30;68933;49.726;9.226;2023-11-19T04:35:36;0.4;;0.4;0.4;;;;;;
79466;SPS30;68933;49.726;9.226;2023-11-19T04:37:49;0.4;;0.4;0.4;;;;;;
79466;SPS30;68933;49.726;9.226;2023-11-19T04:40:02;0.4;;0.4;0.4;;;;;;
79466;SPS30;68933;49.726;9.226;2023-11-19T04:42:15;0.4;;0.4;0.4;;;;;;
79466;SPS30;68933;49.726;9.226;2023-11-19T04:44:28;0.5;;0.5;0.4;;;;;;
79466;SPS30;68933;49.726;9.226;2023-11-19T04:46:41;0.5;;0.5;0.4;;;;;;
79466;SPS30;68933;49.726;9.226;2023-11-19T04:48:54;0.5;;0.5;0.5;;;;;;
79466;SPS30;68933;49.726;9.226;2023-11-19T04:51:07;0.5;;0.5;0.5;;;;;;
79466;SPS30;68933;49.726;9.226;2023-11-19T04:53:20;0.4;;0.4;0.4;;;;;;
79466;SPS30;68933;49.726;9.226;2023-11-19T04:55:33;0.4;;0.4;0.4;;;;;;
79466;SPS30;68933;49.726;9.226;2023-11-19T04:57:46;0.3;;0.3;0.3;;;;;;
79466;SPS30;68933;49.726;9.226;2023-11-19T04:59:59;0.3;;0.3;0.3;;;;;;
79466;SPS30;68933;49.726;9.226;2023-11-19T05:02:12;0.3;;0.3;0.3;;;;;;
79466;SPS30;68933;49.726;9.226;2023-11-19T05:04:25;0.5;;0.5;0.5;;;;;;
79466;SPS30;68933;49.726;9.226;2023-11-19T05:06:38;0.5;;0.5;0.5;;;;;;
79466;SPS30;68933;49.726;9.226;2023-11-19T05:08:51;1.3;;1.3;1.3;;;;;;
79466;SPS30;68933;49.726;9.226;2023-11-19T05:11:04;1.3;;1.3;1.3;;;;;;
79466;SPS30;68933;49.726;9.226;2023-11-19T05:13:17;1.3;;1.3;1.3;;;;;;
79466;SPS30;68933;49.726;9.226;2023-11-19T05:15:30;0.5;;0.5;0.5;;;;;;
79466;SPS30;68933;49.726;9.226;2023-11-19T05:17:43;0.5;;0.5;0.5;;;;;;
79466;SPS30;68933;49.726;9.226;2023-11-19T05:19:56;0.3;;0.3;0.3;;;;;;
79466;SPS30;68933;49.726;9.226;2023-11-19T05:22:09;0.3;;0.3;0.3;;;;;;
79466;SPS30;68933;49.726;9.226;2023-11-19T05:24:22;0.3;;0.3;0.3;;;;;;
79466;SPS30;68933;49.726;9.226;2023-11-19T05:26:35;0.4;;0.4;0.4;;;;;;
79466;SPS30;68933;49.726;9.226;2023-11-19T05:28:48;0.4;;0.4;0.4;;;;;;
79466;SPS30;68933;49.726;9.226;2023-11-19T05:31:01;0.2;;0.2;0.2;;;;;;
79466;SPS30;68933;49.726;9.226;2023-11-19T05:33:14;0.2;;0.2;0.2;;;;;;
79466;SPS30;68933;49.726;9.226;2023-11-19T05:35:27;0.5;;0.5;0.5;;;;;;
79466;SPS30;68933;49.726;9.226;2023-11-19T05:37:40;0.5;;0.5;0.5;;;;;;
79466;SPS30;68933;49.726;9.226;2023-11-19T05:39:53;0.5;;0.5;0.5;;;;;;
79466;SPS30;68933;49.726;9.226;2023-11-19T05:42:06;0.5;;0.5;0.5;;;;;;
79466;SPS30;68933;49.726;9.226;2023-11-19T05:44:19;0.5;;0.5;0.5;;;;;;
79466;SPS30;68933;49.726;9.226;2023-11-19T05:46:32;0.6;;0.6;0.6;;;;;;
79466;SPS30;68933;49.726;9.226;2023-11-19T05:48:45;0.6;;0.6;0.6;;;;;;
79466;SPS30;68933;49.726;9.226;2023-11-19T05:50:58;0.6;;0.6;0.6;;;;;;
79466;SPS30;68933;49.726;9.226;2023-11-19T05:53:11;0.4;;0.4;0.4;;;;;;
79466;SPS30;68933;49.726;9.226;2023-11-19T05:55:24;0.4;;0.4;0.4;;;;;;
79466;SPS30;68933;49.726;9.226;2023-11-19T05:57:37;0.6;;0.6;0.6;;;;;;
79466;SPS30;68933;49.726;9.226;2023-11-19T05:59:50;0.6;;0.6;0.6;;;;;;
79466;SPS30;68933;49.726;9.226;2023-11-19T06:02:03;0.7;;0.7;0.7;;;;;;
79466;SPS30;68933;49.726;9.226;2023-11-19T06:04:16;0.7;;0.7;0.7;;;;;;
79466;SPS30;68933;49.726;9.226;2023-11-19T06:06:29;0.7;;0.7;0.7;;;;;;
79466;SPS30;68933;49.726;9.226;2023-11-19T06:08:42;2.2;;2.2;2.1;;;;;;
79466;SPS30;68933;49.726;9.226;2023-11-19T06:10:55;2.2;;2.2;2.1;;;;;;
79466;SPS30;68933;49.726;9.226;2023-11-19T06:13:08;1.4;;1.4;1.4;;;;;;
79466;SPS30;68933;49.726;9.226;2023-11-19T06:15:21;1.4;;1.4;1.4;;;;;;
79466;SPS30;68933;49.726;9.226;2023-11-19T06:17:34;3.6;;3.5;3.3;;;;;;
79466;SPS30;68933;49.726;9.226;2023-11-19T06:19:47;3.6;;3.5;3.3;;;;;;
79466;SPS30;68933;49.726;9.226;2023-11-19T06:22:00;3.6;;3.5;3.3;;;;;;
79466;SPS30;68933;49.726;9.226;2023-11-19T06:24:13;2.1;;1.8;1.6;;;;;;
79466;SPS30;68933;49.726;9.226;2023-11-19T06:26:26;2.1;;1.8;1.6;;;;;;
79466;SPS30;68933;49.726;9.226;2023-11-19T06:28:39;1.4;;1.3;1.2;;;;;;
79466;SPS30;68933;49.726;9.226;2023-11-19T06:30:52;1.4;;1.3;1.2;;;;;;
79466;SPS30;68933;49.726;9.226;2023-11-19T06:33:05;10.3;;9.7;8.8;;;;;;
79466;SPS30;68933;49.726;9.226;2023-11-19T06:35:18;10.3;;9.7;8.8;;;;;;
79466;SPS30;68933;49.726;9.226;2023-11-19T06:37:31;10.3;;9.7;8.8;;;;;;
79466;SPS30;68933;49.726;9.226;2023-11-19T06:39:44;2.5;;2.4;2.2;;;;;;
79466;SPS30;68933;49.726;9.226;2023-11-19T06:41:57;2.5;;2.4;2.2;;;;;;
79466;SPS30;68933;49.726;9.226;2023-11-19T06:44:10;3.6;;3.6;3.4;;;;;;
79466;SPS30;68933;49.726;9.226;2023-11-19T06:46:23;3.6;;3.6;3.4;;;;;;
79466;SPS30;68933;49.726;9.226;2023-11-19T06:48:36;1.1;;1.1;1.1;;;;;;
79466;SPS30;68933;49.726;9.226;2023-11-19T06:50:49;1.1;;1.1;1.1;;;;;;
79466;SPS30;68933;49.726;9.226;2023-11-19T06:53:02;1.1;;1.1;1.1;;;;;;
79466;SPS30;68933;49.726;9.226;2023-11-19T06:55:15;1.1;;1.1;1.1;;;;;;
79466;SPS30;68933;49.726;9.226;2023-11-19T06:57:28;1.1;;1.1;1.1;;;;;;
79466;SPS30;68933;49.726;9.226;2023-11-19T06:59:41;0.6;;0.6;0.6;;;;;;
79466;SPS30;68933;49.726;9.226;2023-11-19T07:01:54;0.6;;0.6;0.6;;;;;;
79466;SPS30;68933;49.726;9.226;2023-11-19T07:04:07;1;;1;1;;;;;;
79466;SPS30;68933;49.726;9.226;2023-11-19T07:06:20;1;;1;1;;;;;;
79466;SPS30;68933;49.726;9.226;2023-11-19T07:08:33;2.9;;2.9;2.8;;;;;;
79466;SPS30;68933;49.726;9.226;2023-11-19T07:10:46;2.9;;2.9;2.8;;;;;;
79466;SPS30;68933;49.726;9.226;2023-11-19T07:12:59;1.6;;1.6;1.5;;;;;;
79466;SPS30;68933;49.726;9.226;2023-11-19T07:15:12;1.6;;1.6;1.5;;;;;;
79466;SPS30;68933;49.726;9.226;2023-11-19T07:17:25;1.2;;1.2;1.2;;;;;;
79466;SPS30;68933;49.726;9.226;2023-11-19T07:19:38;1.2;;1.2;1.2;;;;;;
79466;SPS30;68933;49.726;9.226;2023-11-19T07:21:51;1.2;;1.2;1.2;;;;;;
79466;SPS30;68933;49.726;9.226;2023-11-19T07:24:05;2.4;;2.4;2.3;;;;;;
79466;SPS30;68933;49.726;9.226;2023-11-19T07:26:17;2.4;;2.4;2.3;;;;;;
79466;SPS30;68933;49.726;9.226;2023-11-19T07:28:30;1.9;;1.9;1.8;;;;;;
79466;SPS30;68933;49.726;9.226;2023-11-19T07:30:43;1.9;;1.9;1.8;;;;;;
79466;SPS30;68933;49.726;9.226;2023-11-19T07:32:56;1.3;;1.3;1.2;;;;;;
79466;SPS30;68933;49.726;9.226;2023-11-19T07:35:09;1.3;;1.3;1.2;;;;;;
79466;SPS30;68933;49.726;9.226;2023-11-19T07:37:22;0.9;;0.9;0.8;;;;;;
79466;SPS30;68933;49.726;9.226;2023-11-19T07:39:35;0.9;;0.9;0.8;;;;;;
79466;SPS30;68933;49.726;9.226;2023-11-19T07:41:48;1.1;;1.1;1;;;;;;
79466;SPS30;68933;49.726;9.226;2023-11-19T07:44:01;1.1;;1.1;1;;;;;;
79466;SPS30;68933;49.726;9.226;2023-11-19T07:46:14;1.2;;1.2;1.2;;;;;;
79466;SPS30;68933;49.726;9.226;2023-11-19T07:48:27;1.2;;1.2;1.2;;;;;;
79466;SPS30;68933;49.726;9.226;2023-11-19T07:50:40;1.2;;1.2;1.2;;;;;;
79466;SPS30;68933;49.726;9.226;2023-11-19T07:52:53;1.4;;1.4;1.3;;;;;;
79466;SPS30;68933;49.726;9.226;2023-11-19T07:55:07;1.4;;1.4;1.3;;;;;;
79466;SPS30;68933;49.726;9.226;2023-11-19T07:57:19;1;;1;1;;;;;;
79466;SPS30;68933;49.726;9.226;2023-11-19T07:59:32;1;;1;1;;;;;;
79466;SPS30;68933;49.726;9.226;2023-11-19T08:01:45;1;;1;1;;;;;;
79466;SPS30;68933;49.726;9.226;2023-11-19T08:03:58;1.1;;1.1;1;;;;;;
79466;SPS30;68933;49.726;9.226;2023-11-19T08:06:11;1.1;;1.1;1;;;;;;
79466;SPS30;68933;49.726;9.226;2023-11-19T08:08:24;1.6;;1.6;1.5;;;;;;
79466;SPS30;68933;49.726;9.226;2023-11-19T08:10:37;1.6;;1.6;1.5;;;;;;
79466;SPS30;68933;49.726;9.226;2023-11-19T08:12:50;1.6;;1.6;1.5;;;;;;
79466;SPS30;68933;49.726;9.226;2023-11-19T08:15:03;2.2;;2.2;2.1;;;;;;
79466;SPS30;68933;49.726;9.226;2023-11-19T08:17:16;2.2;;2.2;2.1;;;;;;
79466;SPS30;68933;49.726;9.226;2023-11-19T08:19:29;1.7;;1.7;1.6;;;;;;
79466;SPS30;68933;49.726;9.226;2023-11-19T08:21:42;1.7;;1.7;1.6;;;;;;
79466;SPS30;68933;49.726;9.226;2023-11-19T08:23:55;1.9;;1.9;1.8;;;;;;
79466;SPS30;68933;49.726;9.226;2023-11-19T08:26:08;1.9;;1.9;1.8;;;;;;
79466;SPS30;68933;49.726;9.226;2023-11-19T08:28:21;1.9;;1.9;1.8;;;;;;
79466;SPS30;68933;49.726;9.226;2023-11-19T08:30:34;6.1;;5.2;4.3;;;;;;
79466;SPS30;68933;49.726;9.226;2023-11-19T08:32:47;6.1;;5.2;4.3;;;;;;
79466;SPS30;68933;49.726;9.226;2023-11-19T08:35:00;2.6;;2.6;2.4;;;;;;
79466;SPS30;68933;49.726;9.226;2023-11-19T08:37:13;2.6;;2.6;2.4;;;;;;
79466;SPS30;68933;49.726;9.226;2023-11-19T08:39:26;2.6;;2.6;2.4;;;;;;
79466;SPS30;68933;49.726;9.226;2023-11-19T08:41:39;2.5;;2.4;2.3;;;;;;
79466;SPS30;68933;49.726;9.226;2023-11-19T08:43:52;2.5;;2.4;2.3;;;;;;
79466;SPS30;68933;49.726;9.226;2023-11-19T08:46:09;1.1;;1.1;1;;;;;;
79466;SPS30;68933;49.726;9.226;2023-11-19T08:48:18;1.1;;1.1;1;;;;;;
79466;SPS30;68933;49.726;9.226;2023-11-19T08:50:31;1.1;;1.1;1;;;;;;
79466;SPS30;68933;49.726;9.226;2023-11-19T08:52:44;1.4;;1.4;1.4;;;;;;
79466;SPS30;68933;49.726;9.226;2023-11-19T08:54:57;1.4;;1.4;1.4;;;;;;
79466;SPS30;68933;49.726;9.226;2023-11-19T08:57:10;1.5;;1.5;1.4;;;;;;
79466;SPS30;68933;49.726;9.226;2023-11-19T08:59:23;1.5;;1.5;1.4;;;;;;
79466;SPS30;68933;49.726;9.226;2023-11-19T09:01:36;1.3;;1.3;1.2;;;;;;
79466;SPS30;68933;49.726;9.226;2023-11-19T09:03:49;1.3;;1.3;1.2;;;;;;
79466;SPS30;68933;49.726;9.226;2023-11-19T09:06:02;1.3;;1.3;1.2;;;;;;
79466;SPS30;68933;49.726;9.226;2023-11-19T09:08:15;1.2;;1.2;1.1;;;;;;
79466;SPS30;68933;49.726;9.226;2023-11-19T09:10:28;1.2;;1.2;1.1;;;;;;
79466;SPS30;68933;49.726;9.226;2023-11-19T09:12:41;1.8;;1.8;1.7;;;;;;
79466;SPS30;68933;49.726;9.226;2023-11-19T09:14:54;1.8;;1.8;1.7;;;;;;
79466;SPS30;68933;49.726;9.226;2023-11-19T09:17:07;1.1;;1.1;1.1;;;;;;
79466;SPS30;68933;49.726;9.226;2023-11-19T09:19:20;1.1;;1.1;1.1;;;;;;
79466;SPS30;68933;49.726;9.226;2023-11-19T09:21:33;1.1;;1.1;1.1;;;;;;
79466;SPS30;68933;49.726;9.226;2023-11-19T09:23:46;1.2;;1.2;1.1;;;;;;
79466;SPS30;68933;49.726;9.226;2023-11-19T09:25:59;1.2;;1.2;1.1;;;;;;
79466;SPS30;68933;49.726;9.226;2023-11-19T09:28:12;1;;1;1;;;;;;
79466;SPS30;68933;49.726;9.226;2023-11-19T09:30:25;1;;1;1;;;;;;
79466;SPS30;68933;49.726;9.226;2023-11-19T09:32:38;1.3;;1.3;1.2;;;;;;
79466;SPS30;68933;49.726;9.226;2023-11-19T09:34:51;1.3;;1.3;1.2;;;;;;
79466;SPS30;68933;49.726;9.226;2023-11-19T09:37:04;1.2;;1.2;1.2;;;;;;
79466;SPS30;68933;49.726;9.226;2023-11-19T09:39:17;1.2;;1.2;1.2;;;;;;
79466;SPS30;68933;49.726;9.226;2023-11-19T09:41:30;1.2;;1.2;1.2;;;;;;
79466;SPS30;68933;49.726;9.226;2023-11-19T09:43:43;1.1;;1.1;1;;;;;;
79466;SPS30;68933;49.726;9.226;2023-11-19T09:45:56;1.1;;1.1;1;;;;;;
79466;SPS30;68933;49.726;9.226;2023-11-19T09:48:09;1.5;;1.5;1.4;;;;;;
79466;SPS30;68933;49.726;9.226;2023-11-19T09:50:22;1.5;;1.5;1.4;;;;;;
79466;SPS30;68933;49.726;9.226;2023-11-19T09:52:35;0.9;;0.9;0.8;;;;;;
79466;SPS30;68933;49.726;9.226;2023-11-19T09:54:48;0.9;;0.9;0.8;;;;;;
79466;SPS30;68933;49.726;9.226;2023-11-19T09:57:02;0.9;;0.9;0.8;;;;;;
79466;SPS30;68933;49.726;9.226;2023-11-19T09:59:14;0.9;;0.9;0.8;;;;;;
79466;SPS30;68933;49.726;9.226;2023-11-19T10:01:27;0.9;;0.9;0.8;;;;;;
79466;SPS30;68933;49.726;9.226;2023-11-19T10:03:40;1.3;;1.3;1.3;;;;;;
79466;SPS30;68933;49.726;9.226;2023-11-19T10:05:53;1.3;;1.3;1.3;;;;;;
79466;SPS30;68933;49.726;9.226;2023-11-19T10:08:07;0.9;;0.9;0.8;;;;;;
79466;SPS30;68933;49.726;9.226;2023-11-19T10:10:19;0.9;;0.9;0.8;;;;;;
79466;SPS30;68933;49.726;9.226;2023-11-19T10:12:32;1.3;;1.3;1.2;;;;;;
79466;SPS30;68933;49.726;9.226;2023-11-19T10:14:45;1.3;;1.3;1.2;;;;;;
79466;SPS30;68933;49.726;9.226;2023-11-19T10:16:58;1;;1;1;;;;;;
79466;SPS30;68933;49.726;9.226;2023-11-19T10:19:12;1;;1;1;;;;;;
79466;SPS30;68933;49.726;9.226;2023-11-19T10:21:24;1;;1;1;;;;;;
79466;SPS30;68933;49.726;9.226;2023-11-19T10:23:53;1.6;;1.6;1.5;;;;;;
79466;SPS30;68933;49.726;9.226;2023-11-19T10:25:52;1.6;;1.6;1.5;;;;;;
79466;SPS30;68933;49.726;9.226;2023-11-19T10:28:03;1.4;;1.4;1.3;;;;;;
79466;SPS30;68933;49.726;9.226;2023-11-19T10:30:17;1.4;;1.4;1.3;;;;;;
79466;SPS30;68933;49.726;9.226;2023-11-19T10:32:29;1.3;;1.3;1.3;;;;;;
79466;SPS30;68933;49.726;9.226;2023-11-19T10:34:42;1.3;;1.3;1.3;;;;;;
79466;SPS30;68933;49.726;9.226;2023-11-19T10:36:55;1.6;;1.6;1.5;;;;;;
79466;SPS30;68933;49.726;9.226;2023-11-19T10:39:08;1.6;;1.6;1.5;;;;;;
79466;SPS30;68933;49.726;9.226;2023-11-19T10:41:29;1.6;;1.6;1.5;;;;;;
79466;SPS30;68933;49.726;9.226;2023-11-19T10:43:42;1.5;;1.5;1.4;;;;;;
79466;SPS30;68933;49.726;9.226;2023-11-19T10:45:47;1.5;;1.5;1.4;;;;;;
79466;SPS30;68933;49.726;9.226;2023-11-19T10:48:00;2.7;;2.7;2.6;;;;;;
79466;SPS30;68933;49.726;9.226;2023-11-19T10:50:13;2.7;;2.7;2.6;;;;;;
79466;SPS30;68933;49.726;9.226;2023-11-19T10:52:26;10.5;;10.3;9.7;;;;;;
79466;SPS30;68933;49.726;9.226;2023-11-19T10:54:39;10.5;;10.3;9.7;;;;;;
79466;SPS30;68933;49.726;9.226;2023-11-19T10:56:54;2.5;;2.5;2.4;;;;;;
79466;SPS30;68933;49.726;9.226;2023-11-19T10:59:05;2.5;;2.5;2.4;;;;;;
79466;SPS30;68933;49.726;9.226;2023-11-19T11:01:19;1.8;;1.8;1.7;;;;;;
79466;SPS30;68933;49.726;9.226;2023-11-19T11:03:32;1.8;;1.8;1.7;;;;;;
79466;SPS30;68933;49.726;9.226;2023-11-19T11:05:45;1.7;;1.7;1.6;;;;;;
79466;SPS30;68933;49.726;9.226;2023-11-19T11:07:57;1.7;;1.7;1.6;;;;;;
79466;SPS30;68933;49.726;9.226;2023-11-19T11:10:10;1.7;;1.7;1.6;;;;;;
79466;SPS30;68933;49.726;9.226;2023-11-19T11:12:23;1.6;;1.6;1.5;;;;;;
79466;SPS30;68933;49.726;9.226;2023-11-19T11:14:37;1.6;;1.6;1.5;;;;;;
79466;SPS30;68933;49.726;9.226;2023-11-19T11:16:49;1.6;;1.6;1.5;;;;;;
79466;SPS30;68933;49.726;9.226;2023-11-19T11:19:02;1.2;;1.2;1.2;;;;;;
79466;SPS30;68933;49.726;9.226;2023-11-19T11:21:16;1.2;;1.2;1.2;;;;;;
79466;SPS30;68933;49.726;9.226;2023-11-19T11:23:36;2.8;;2.8;2.6;;;;;;
79466;SPS30;68933;49.726;9.226;2023-11-19T11:25:43;2.8;;2.8;2.6;;;;;;
79466;SPS30;68933;49.726;9.226;2023-11-19T11:27:57;1.7;;1.6;1.6;;;;;;
79466;SPS30;68933;49.726;9.226;2023-11-19T11:30:10;1.7;;1.6;1.6;;;;;;
79466;SPS30;68933;49.726;9.226;2023-11-19T11:32:21;1.7;;1.6;1.6;;;;;;
79466;SPS30;68933;49.726;9.226;2023-11-19T11:34:38;2.4;;2.4;2.2;;;;;;
79466;SPS30;68933;49.726;9.226;2023-11-19T11:36:49;2.4;;2.4;2.2;;;;;;
79466;SPS30;68933;49.726;9.226;2023-11-19T11:38:59;3.9;;3.9;3.7;;;;;;
79466;SPS30;68933;49.726;9.226;2023-11-19T11:41:16;3.9;;3.9;3.7;;;;;;
79466;SPS30;68933;49.726;9.226;2023-11-19T11:43:57;3.9;;3.9;3.7;;;;;;
79466;SPS30;68933;49.726;9.226;2023-11-19T11:45:39;2.6;;2.6;2.5;;;;;;
79466;SPS30;68933;49.726;9.226;2023-11-19T11:48:23;2.6;;2.6;2.5;;;;;;
79466;SPS30;68933;49.726;9.226;2023-11-19T11:50:05;3.7;;3.7;3.5;;;;;;
79466;SPS30;68933;49.726;9.226;2023-11-19T11:52:17;3.7;;3.7;3.5;;;;;;
79466;SPS30;68933;49.726;9.226;2023-11-19T11:54:30;2;;2;1.9;;;;;;
79466;SPS30;68933;49.726;9.226;2023-11-19T11:56:43;2;;2;1.9;;;;;;
79466;SPS30;68933;49.726;9.226;2023-11-19T11:58:56;2;;2;1.9;;;;;;
79466;SPS30;68933;49.726;9.226;2023-11-19T12:01:10;6.9;;6.9;6.6;;;;;;
79466;SPS30;68933;49.726;9.226;2023-11-19T12:03:22;6.9;;6.9;6.6;;;;;;
79466;SPS30;68933;49.726;9.226;2023-11-19T12:05:38;4.2;;4.2;4;;;;;;
79466;SPS30;68933;49.726;9.226;2023-11-19T12:07:54;4.2;;4.2;4;;;;;;
79466;SPS30;68933;49.726;9.226;2023-11-19T12:10:05;3.2;;3.2;3.1;;;;;;
79466;SPS30;68933;49.726;9.226;2023-11-19T12:12:18;3.2;;3.2;3.1;;;;;;
79466;SPS30;68933;49.726;9.226;2023-11-19T12:14:59;3.2;;3.2;3.1;;;;;;
79466;SPS30;68933;49.726;9.226;2023-11-19T12:16:40;2.6;;2.6;2.4;;;;;;
79466;SPS30;68933;49.726;9.226;2023-11-19T12:18:53;2.6;;2.6;2.4;;;;;;
79466;SPS30;68933;49.726;9.226;2023-11-19T12:21:06;5.1;;5.1;4.8;;;;;;
79466;SPS30;68933;49.726;9.226;2023-11-19T12:23:19;5.1;;5.1;4.8;;;;;;
79466;SPS30;68933;49.726;9.226;2023-11-19T12:25:33;5.1;;5.1;4.8;;;;;;
79466;SPS30;68933;49.726;9.226;2023-11-19T12:27:46;2.9;;2.9;2.7;;;;;;
79466;SPS30;68933;49.726;9.226;2023-11-19T12:29:58;2.9;;2.9;2.7;;;;;;
79466;SPS30;68933;49.726;9.226;2023-11-19T12:32:11;3.3;;3.2;3.1;;;;;;
79466;SPS30;68933;49.726;9.226;2023-11-19T12:34:24;3.3;;3.2;3.1;;;;;;
79466;SPS30;68933;49.726;9.226;2023-11-19T12:36:38;3;;3;2.8;;;;;;
79466;SPS30;68933;49.726;9.226;2023-11-19T12:38:50;3;;3;2.8;;;;;;
79466;SPS30;68933;49.726;9.226;2023-11-19T12:41:03;1.9;;1.9;1.8;;;;;;